createdAt,value
2022-07-30T12:40:53.829Z,2.00
2022-07-30T12:43:23.073Z,1.80
2022-07-30T12:45:54.249Z,2.10
2022-07-30T12:48:24.484Z,2.20
2022-07-30T12:50:53.701Z,2.00
2022-07-30T12:53:24.707Z,1.90
2022-07-30T12:55:54.054Z,1.80
2022-07-30T12:58:23.368Z,2.00
2022-07-30T13:00:53.127Z,2.10
2022-07-30T13:03:22.338Z,2.20
2022-07-30T13:05:51.540Z,2.20
2022-07-30T13:08:25.216Z,2.20
2022-07-30T13:10:54.612Z,2.10
2022-07-30T13:13:24.155Z,1.80
2022-07-30T13:15:54.060Z,2.00
2022-07-30T13:18:23.819Z,2.00
2022-07-30T13:20:53.054Z,2.30
2022-07-30T13:23:22.311Z,2.30
2022-07-30T13:25:51.750Z,2.10
2022-07-30T13:28:20.976Z,1.90
2022-07-30T13:30:50.213Z,2.30
2022-07-30T13:33:19.612Z,2.10
2022-07-30T13:35:48.885Z,2.30
2022-07-30T13:38:18.113Z,2.00
2022-07-30T13:40:47.382Z,1.80
2022-07-30T13:43:16.550Z,2.20
2022-07-30T13:45:45.864Z,2.00
2022-07-30T13:48:15.471Z,2.00
2022-07-30T13:50:45.666Z,1.90
2022-07-30T13:53:14.868Z,1.80
2022-07-30T13:55:44.873Z,2.00
2022-07-30T13:58:14.130Z,1.80
2022-07-30T14:00:45.512Z,2.00
2022-07-30T14:03:14.682Z,1.80
2022-07-30T14:05:43.861Z,2.10
2022-07-30T14:08:13.163Z,1.80
2022-07-30T14:10:42.309Z,1.70
2022-07-30T14:13:16.014Z,1.80
2022-07-30T14:15:50.906Z,1.80
2022-07-30T14:18:20.099Z,1.70
2022-07-30T14:20:49.774Z,1.90
2022-07-30T14:23:19.031Z,1.60
2022-07-30T14:25:48.209Z,1.70
2022-07-30T14:28:17.682Z,1.60
2022-07-30T14:30:47.037Z,1.80
2022-07-30T14:33:16.382Z,1.70
2022-07-30T14:35:45.704Z,1.40
2022-07-30T14:38:15.043Z,1.90
2022-07-30T14:40:44.363Z,1.80
2022-07-30T14:43:15.055Z,1.90
2022-07-30T14:45:44.263Z,2.00
2022-07-30T14:48:13.538Z,2.60
2022-07-30T14:50:57.203Z,1.80
2022-07-30T14:53:31.976Z,1.80
2022-07-30T14:56:01.098Z,1.90
2022-07-30T14:58:30.412Z,1.90
2022-07-30T15:01:00.143Z,1.90
2022-07-30T15:06:15.552Z,2.00
2022-07-30T15:08:46.227Z,1.80
2022-07-30T15:11:15.673Z,1.60
2022-07-30T15:13:50.192Z,1.70
2022-07-30T15:16:20.418Z,1.70
2022-07-30T15:18:49.856Z,1.60
2022-07-30T15:21:19.040Z,1.80
2022-07-30T15:23:48.381Z,2.30
2022-07-30T15:26:17.589Z,1.70
2022-07-30T15:28:46.800Z,1.70
2022-07-30T15:31:16.002Z,1.70
2022-07-30T15:33:45.227Z,1.90
2022-07-30T15:36:14.676Z,1.60
2022-07-30T15:38:43.904Z,1.80
2022-07-30T15:41:15.561Z,1.70
2022-07-30T15:43:44.880Z,1.70
2022-07-30T15:46:14.318Z,1.80
2022-07-30T15:48:43.523Z,2.10
2022-07-30T15:51:13.216Z,1.80
2022-07-30T15:53:42.401Z,1.90
2022-07-30T15:56:11.637Z,2.10
2022-07-30T15:58:43.506Z,2.00
2022-07-30T16:01:13.208Z,1.50
2022-07-30T16:03:42.468Z,2.00
2022-07-30T16:06:11.668Z,2.70
2022-07-30T16:08:40.909Z,1.70
2022-07-30T16:11:10.946Z,1.90
2022-07-30T16:13:40.588Z,1.90
2022-07-30T16:16:09.826Z,2.20
2022-07-30T16:18:39.159Z,2.10
2022-07-30T16:21:08.528Z,2.10
2022-07-30T16:23:39.527Z,1.80
2022-07-30T16:26:09.046Z,2.10
2022-07-30T16:28:39.648Z,1.60
2022-07-30T16:31:09.180Z,2.30
2022-07-30T16:33:38.513Z,2.10
2022-07-30T16:36:07.725Z,2.10
2022-07-30T16:38:37.108Z,2.20
2022-07-30T16:41:10.370Z,2.30
2022-07-30T16:43:42.326Z,2.00
2022-07-30T16:46:12.210Z,2.90
2022-07-30T16:48:41.445Z,2.10
2022-07-30T16:51:10.747Z,2.10
2022-07-30T16:53:41.576Z,2.30
2022-07-30T16:56:10.859Z,3.00
2022-07-30T16:58:40.060Z,2.30
2022-07-30T17:01:09.636Z,2.30
2022-07-30T17:03:39.071Z,1.90
2022-07-30T17:06:08.303Z,2.30
2022-07-30T17:08:37.759Z,2.10
2022-07-30T17:11:09.044Z,2.00
2022-07-30T17:13:40.616Z,2.80
2022-07-30T17:16:10.080Z,2.20
2022-07-30T17:18:39.422Z,2.20
2022-07-30T17:21:08.910Z,2.30
2022-07-30T17:23:39.154Z,2.60
2022-07-30T17:26:10.607Z,2.30
2022-07-30T17:28:39.882Z,2.60
2022-07-30T17:31:09.238Z,2.40
2022-07-30T17:33:39.150Z,2.60
2022-07-30T17:36:09.752Z,2.30
2022-07-30T17:38:39.241Z,3.00
2022-07-30T17:41:13.096Z,2.20
2022-07-30T17:43:42.921Z,2.10
2022-07-30T17:46:12.260Z,2.20
2022-07-30T17:48:41.517Z,2.00
2022-07-30T17:51:10.765Z,2.40
2022-07-30T17:53:40.103Z,3.00
2022-07-30T17:56:25.523Z,2.30
2022-07-30T17:58:56.896Z,2.10
2022-07-30T18:01:26.101Z,2.20
2022-07-30T18:03:55.530Z,2.50
2022-07-30T18:06:24.791Z,2.30
2022-07-30T18:08:54.147Z,2.30
2022-07-30T18:11:23.266Z,2.20
2022-07-30T18:13:52.494Z,2.50
2022-07-30T18:16:21.683Z,2.30
2022-07-30T18:18:51.013Z,3.10
2022-07-30T18:21:20.253Z,2.30
2022-07-30T18:23:49.529Z,2.60
2022-07-30T18:26:18.705Z,2.30
2022-07-30T18:28:51.024Z,2.40
2022-07-30T18:31:20.219Z,2.20
2022-07-30T18:33:50.018Z,2.60
2022-07-30T18:36:19.827Z,3.20
2022-07-30T18:38:51.202Z,3.90
2022-07-30T18:41:20.476Z,3.70
2022-07-30T18:43:49.722Z,3.20
2022-07-30T18:46:18.973Z,3.40
2022-07-30T18:48:48.997Z,4.70
2022-07-30T18:51:19.158Z,3.90
2022-07-30T18:53:48.720Z,4.00
2022-07-30T18:56:18.112Z,3.70
2022-07-30T18:58:47.583Z,3.90
2022-07-30T19:01:18.578Z,3.50
2022-07-30T19:03:48.009Z,3.70
2022-07-30T19:06:17.526Z,3.50
2022-07-30T19:08:51.005Z,3.80
2022-07-30T19:11:20.591Z,3.50
2022-07-30T19:13:50.685Z,3.30
2022-07-30T19:16:21.027Z,3.60
2022-07-30T19:18:50.387Z,3.20
2022-07-30T19:21:19.646Z,3.70
2022-07-30T19:23:48.928Z,3.40
2022-07-30T19:26:19.264Z,3.40
2022-07-30T19:28:48.596Z,3.40
2022-07-30T19:31:18.060Z,3.90
2022-07-30T19:33:47.254Z,3.40
2022-07-30T19:36:20.916Z,3.30
2022-07-30T19:38:50.428Z,4.40
2022-07-30T19:41:19.829Z,3.60
2022-07-30T19:43:58.117Z,4.00
2022-07-30T19:46:28.081Z,4.00
2022-07-30T19:48:59.027Z,4.00
2022-07-30T19:52:22.301Z,4.00
2022-07-30T19:54:19.109Z,3.60
2022-07-30T19:56:48.649Z,3.60
2022-07-30T19:59:43.683Z,3.20
2022-07-30T20:02:09.127Z,3.30
2022-07-30T20:04:39.987Z,3.70
2022-07-30T20:07:13.254Z,8.80
2022-07-30T20:09:44.972Z,8.80
2022-07-30T20:12:17.998Z,5.10
2022-07-30T20:14:47.395Z,4.80
2022-07-30T20:17:18.691Z,4.10
2022-07-30T20:19:48.864Z,11.30
2022-07-30T20:22:21.634Z,9.80
2022-07-30T20:24:55.545Z,5.70
2022-07-30T20:27:36.643Z,6.40
2022-07-30T20:30:08.492Z,4.40
2022-07-30T20:32:39.014Z,3.70
2022-07-30T20:35:10.831Z,3.50
2022-07-30T20:37:54.474Z,4.10
2022-07-30T20:40:24.521Z,3.80
2022-07-30T20:42:56.430Z,3.90
2022-07-30T20:45:37.877Z,3.80
2022-07-30T20:48:17.108Z,4.30
2022-07-30T20:50:49.249Z,4.00
2022-07-30T20:53:20.823Z,4.50
2022-07-30T20:55:50.449Z,3.70
2022-07-30T20:58:21.008Z,4.40
2022-07-30T21:00:52.496Z,3.90
2022-07-30T21:03:21.879Z,4.20
2022-07-30T21:05:52.742Z,5.00
2022-07-30T21:08:25.234Z,5.30
2022-07-30T21:10:55.431Z,5.10
2022-07-30T21:13:26.241Z,5.60
2022-07-30T21:16:02.297Z,5.00
2022-07-30T21:18:33.969Z,5.20
2022-07-30T21:21:05.438Z,4.90
2022-07-30T21:23:35.218Z,4.00
2022-07-30T21:26:10.642Z,4.50
2022-07-30T21:28:44.336Z,4.10
2022-07-30T21:31:14.263Z,4.30
2022-07-30T21:33:43.836Z,4.30
2022-07-30T21:36:14.970Z,4.10
2022-07-30T21:38:44.515Z,4.30
2022-07-30T21:41:14.320Z,4.40
2022-07-30T21:43:44.981Z,4.50
2022-07-30T21:46:14.423Z,3.80
2022-07-30T21:48:44.761Z,4.40
2022-07-30T21:51:16.051Z,4.50
2022-07-30T21:53:46.484Z,4.40
2022-07-30T21:56:16.436Z,4.60
2022-07-30T21:58:48.574Z,3.80
2022-07-30T22:01:22.626Z,4.00
2022-07-30T22:04:01.653Z,3.80
2022-07-30T22:06:38.059Z,3.60
2022-07-30T22:09:26.300Z,4.10
2022-07-30T22:11:57.230Z,4.20
2022-07-30T22:14:31.404Z,3.60
2022-07-30T22:17:04.415Z,4.40
2022-07-30T22:19:33.962Z,4.30
2022-07-30T22:22:25.854Z,4.00
2022-07-30T22:24:52.780Z,4.00
2022-07-30T22:27:22.700Z,4.30
2022-07-30T22:29:55.724Z,4.00
2022-07-30T22:32:25.442Z,4.30
2022-07-30T22:34:55.557Z,4.50
2022-07-30T22:37:27.123Z,4.00
2022-07-30T22:40:03.770Z,4.80
2022-07-30T22:42:36.559Z,4.20
2022-07-30T22:45:43.528Z,4.20
2022-07-30T22:48:10.357Z,4.60
2022-07-30T22:50:40.723Z,4.00
2022-07-30T22:53:56.942Z,4.40
2022-07-30T22:56:00.097Z,4.30
2022-07-30T22:58:30.395Z,4.40
2022-07-30T23:01:00.640Z,4.60
2022-07-30T23:03:29.900Z,5.10
2022-07-30T23:05:59.208Z,4.30
2022-07-30T23:08:30.997Z,4.90
2022-07-30T23:11:01.386Z,4.40
2022-07-30T23:13:31.516Z,4.40
2022-07-30T23:16:00.799Z,4.00
2022-07-30T23:18:30.214Z,4.40
2022-07-30T23:21:00.532Z,4.30
2022-07-30T23:23:33.750Z,4.30
2022-07-30T23:26:04.169Z,3.70
2022-07-30T23:28:33.881Z,4.10
2022-07-30T23:31:03.904Z,4.10
2022-07-30T23:33:33.460Z,3.90
2022-07-30T23:36:03.168Z,3.70
2022-07-30T23:38:32.489Z,3.90
2022-07-30T23:41:04.461Z,3.80
2022-07-30T23:43:33.918Z,3.50
2022-07-30T23:46:03.278Z,4.10
2022-07-30T23:48:33.342Z,4.30
2022-07-30T23:51:02.750Z,4.30
2022-07-30T23:53:32.016Z,4.20
2022-07-30T23:56:01.319Z,4.00
2022-07-30T23:58:30.779Z,3.90
